createdAt,value
2023-03-07T00:00:35.605Z,1011.90
2023-03-07T00:01:36.216Z,1011.78
2023-03-07T00:02:36.858Z,1011.89
2023-03-07T00:03:37.612Z,1011.79
2023-03-07T00:04:38.249Z,1011.78
2023-03-07T00:05:38.890Z,1011.75
2023-03-07T00:06:39.490Z,1011.81
2023-03-07T00:07:40.096Z,1011.80
2023-03-07T00:08:40.703Z,1011.74
2023-03-07T00:09:41.323Z,1011.70
2023-03-07T00:10:41.991Z,1011.76
2023-03-07T00:11:42.602Z,1011.77
2023-03-07T00:12:43.200Z,1011.82
2023-03-07T00:13:43.804Z,1011.73
2023-03-07T00:14:44.411Z,1011.79
2023-03-07T00:15:45.127Z,1011.73
2023-03-07T00:16:45.736Z,1011.80
2023-03-07T00:17:46.420Z,1011.78
2023-03-07T00:18:47.062Z,1011.79
2023-03-07T00:19:47.706Z,1011.80
2023-03-07T00:20:48.308Z,1011.75
2023-03-07T00:21:48.934Z,1011.76
2023-03-07T00:22:49.535Z,1011.72
2023-03-07T00:23:50.136Z,1011.70
2023-03-07T00:24:50.749Z,1011.79
2023-03-07T00:25:51.417Z,1011.74
2023-03-07T00:26:52.885Z,1011.86
2023-03-07T00:27:53.479Z,1011.82
2023-03-07T00:28:54.089Z,1011.83
2023-03-07T00:29:54.683Z,1011.80
2023-03-07T00:30:56.149Z,1011.89
2023-03-07T00:31:57.035Z,1011.89
2023-03-07T00:32:57.736Z,1011.91
2023-03-07T00:33:58.348Z,1011.93
2023-03-07T00:34:58.960Z,1012.00
2023-03-07T00:35:59.704Z,1011.96
2023-03-07T00:37:00.346Z,1011.97
2023-03-07T00:38:00.953Z,1011.95
2023-03-07T00:39:01.645Z,1011.94
2023-03-07T00:40:02.242Z,1011.94
2023-03-07T00:41:02.868Z,1011.94
2023-03-07T00:42:03.458Z,1011.93
2023-03-07T00:43:04.073Z,1011.96
2023-03-07T00:44:04.762Z,1011.99
2023-03-07T00:45:06.269Z,1011.96
2023-03-07T00:46:06.928Z,1011.98
2023-03-07T00:47:07.528Z,1012.00
2023-03-07T00:48:08.138Z,1011.99
2023-03-07T00:49:08.741Z,1011.98
2023-03-07T00:50:09.414Z,1012.05
2023-03-07T00:51:10.020Z,1012.00
2023-03-07T00:52:10.623Z,1012.07
2023-03-07T00:53:11.230Z,1012.03
2023-03-07T00:54:11.831Z,1012.12
2023-03-07T00:55:12.438Z,1012.05
2023-03-07T00:56:13.031Z,1012.04
2023-03-07T00:57:13.880Z,1012.20
2023-03-07T00:58:14.491Z,1012.22
2023-03-07T00:59:15.098Z,1012.18
2023-03-07T01:00:15.716Z,1012.08
2023-03-07T01:01:16.385Z,1012.20
2023-03-07T01:02:16.978Z,1012.13
2023-03-07T01:03:17.585Z,1012.17
2023-03-07T01:04:18.203Z,1012.17
2023-03-07T01:05:18.820Z,1012.13
2023-03-07T01:06:19.494Z,1012.17
2023-03-07T01:07:20.165Z,1012.14
2023-03-07T01:08:20.780Z,1012.15
2023-03-07T01:09:21.457Z,1012.17
2023-03-07T01:10:22.065Z,1012.16
2023-03-07T01:11:22.679Z,1012.25
2023-03-07T01:12:23.348Z,1012.24
2023-03-07T01:13:23.940Z,1012.17
2023-03-07T01:14:24.551Z,1012.25
2023-03-07T01:15:25.144Z,1012.26
2023-03-07T01:16:25.806Z,1012.19
2023-03-07T01:17:26.423Z,1012.30
2023-03-07T01:18:27.025Z,1012.29
2023-03-07T01:19:27.615Z,1012.25
2023-03-07T01:20:28.225Z,1012.33
2023-03-07T01:21:28.835Z,1012.29
2023-03-07T01:22:29.448Z,1012.30
2023-03-07T01:23:30.045Z,1012.38
2023-03-07T01:24:30.655Z,1012.27
2023-03-07T01:25:31.258Z,1012.32
2023-03-07T01:26:31.859Z,1012.36
2023-03-07T01:27:32.471Z,1012.34
2023-03-07T01:28:33.076Z,1012.35
2023-03-07T01:29:33.679Z,1012.41
2023-03-07T01:30:34.280Z,1012.33
2023-03-07T01:31:34.915Z,1012.33
2023-03-07T01:32:35.598Z,1012.35
2023-03-07T01:33:36.190Z,1012.40
2023-03-07T01:34:36.885Z,1012.41
2023-03-07T01:35:37.613Z,1012.41
2023-03-07T01:36:38.202Z,1012.42
2023-03-07T01:37:38.854Z,1012.46
2023-03-07T01:38:39.552Z,1012.44
2023-03-07T01:39:40.160Z,1012.41
2023-03-07T01:40:40.771Z,1012.39
2023-03-07T01:41:41.573Z,1012.45
2023-03-07T01:42:42.276Z,1012.48
2023-03-07T01:43:42.962Z,1012.49
2023-03-07T01:44:43.562Z,1012.48
2023-03-07T01:45:44.226Z,1012.45
2023-03-07T01:46:44.828Z,1012.54
2023-03-07T01:47:45.438Z,1012.52
2023-03-07T01:48:46.147Z,1012.47
2023-03-07T01:49:46.765Z,1012.51
2023-03-07T01:50:47.389Z,1012.61
2023-03-07T01:51:48.007Z,1012.53
2023-03-07T01:52:48.751Z,1012.49
2023-03-07T01:53:49.357Z,1012.58
2023-03-07T01:54:49.956Z,1012.53
2023-03-07T01:55:50.564Z,1012.51
2023-03-07T01:56:51.173Z,1012.58
2023-03-07T01:57:51.783Z,1012.48
2023-03-07T01:58:52.491Z,1012.56
2023-03-07T01:59:53.100Z,1012.64
2023-03-07T02:00:53.729Z,1012.59
2023-03-07T02:01:54.331Z,1012.58
2023-03-07T02:02:54.939Z,1012.59
2023-03-07T02:03:55.591Z,1012.62
2023-03-07T02:04:56.215Z,1012.64
2023-03-07T02:05:56.924Z,1012.70
2023-03-07T02:06:57.624Z,1012.61
2023-03-07T02:07:58.226Z,1012.68
2023-03-07T02:08:58.834Z,1012.68
2023-03-07T02:09:59.440Z,1012.66
2023-03-07T02:11:00.054Z,1012.66
2023-03-07T02:12:00.660Z,1012.64
2023-03-07T02:13:01.263Z,1012.61
2023-03-07T02:14:01.878Z,1012.72
2023-03-07T02:15:02.479Z,1012.65
2023-03-07T02:16:03.096Z,1012.71
2023-03-07T02:17:03.734Z,1012.66
2023-03-07T02:18:04.327Z,1012.62
2023-03-07T02:19:04.938Z,1012.60
2023-03-07T02:20:05.547Z,1012.66
2023-03-07T02:21:06.221Z,1012.64
2023-03-07T02:22:06.828Z,1012.67
2023-03-07T02:23:07.433Z,1012.57
2023-03-07T02:24:08.032Z,1012.67
2023-03-07T02:25:08.635Z,1012.67
2023-03-07T02:26:09.235Z,1012.67
2023-03-07T02:27:09.844Z,1012.66
2023-03-07T02:28:10.452Z,1012.68
2023-03-07T02:29:11.067Z,1012.64
2023-03-07T02:30:11.672Z,1012.64
2023-03-07T02:31:12.319Z,1012.75
2023-03-07T02:32:12.957Z,1012.68
2023-03-07T02:33:13.623Z,1012.68
2023-03-07T02:34:14.241Z,1012.67
2023-03-07T02:35:14.846Z,1012.73
2023-03-07T02:36:15.444Z,1012.65
2023-03-07T02:37:16.050Z,1012.66
2023-03-07T02:38:16.725Z,1012.58
2023-03-07T02:39:17.429Z,1012.64
2023-03-07T02:40:18.047Z,1012.60
2023-03-07T02:41:18.649Z,1012.64
2023-03-07T02:42:20.121Z,1012.66
2023-03-07T02:43:20.719Z,1012.62
2023-03-07T02:44:21.324Z,1012.67
2023-03-07T02:45:22.837Z,1012.62
2023-03-07T02:46:23.566Z,1012.57
2023-03-07T02:47:24.193Z,1012.61
2023-03-07T02:48:24.807Z,1012.57
2023-03-07T02:49:25.417Z,1012.58
2023-03-07T02:50:26.020Z,1012.66
2023-03-07T02:51:26.621Z,1012.60
2023-03-07T02:52:27.223Z,1012.60
2023-03-07T02:53:27.826Z,1012.54
2023-03-07T02:54:28.512Z,1012.54
2023-03-07T02:55:29.110Z,1012.59
2023-03-07T02:56:29.713Z,1012.55
2023-03-07T02:57:30.318Z,1012.58
2023-03-07T02:58:30.926Z,1012.62
2023-03-07T02:59:31.539Z,1012.53
2023-03-07T03:00:32.300Z,1012.54
2023-03-07T03:01:33.721Z,1012.56
2023-03-07T03:02:34.314Z,1012.58
2023-03-07T03:03:34.928Z,1012.58
2023-03-07T03:04:35.597Z,1012.60
2023-03-07T03:05:36.360Z,1012.59
2023-03-07T03:06:37.160Z,1012.59
2023-03-07T03:07:37.771Z,1012.57
2023-03-07T03:08:38.384Z,1012.55
2023-03-07T03:09:38.987Z,1012.58
2023-03-07T03:10:39.605Z,1012.58
2023-03-07T03:11:40.225Z,1012.55
2023-03-07T03:12:40.817Z,1012.62
2023-03-07T03:13:41.425Z,1012.60
2023-03-07T03:14:42.827Z,1012.54
2023-03-07T03:15:43.470Z,1012.53
2023-03-07T03:16:44.131Z,1012.57
2023-03-07T03:17:44.732Z,1012.52
2023-03-07T03:18:45.417Z,1012.56
2023-03-07T03:19:46.012Z,1012.54
2023-03-07T03:20:46.625Z,1012.51
2023-03-07T03:21:47.340Z,1012.56
2023-03-07T03:22:47.986Z,1012.59
2023-03-07T03:23:48.593Z,1012.50
2023-03-07T03:24:49.199Z,1012.48
2023-03-07T03:25:49.800Z,1012.46
2023-03-07T03:26:50.461Z,1012.49
2023-03-07T03:27:51.062Z,1012.42
2023-03-07T03:28:51.673Z,1012.45
2023-03-07T03:29:52.283Z,1012.45
2023-03-07T03:30:52.896Z,1012.41
2023-03-07T03:31:53.494Z,1012.39
2023-03-07T03:32:54.094Z,1012.40
2023-03-07T03:33:54.699Z,1012.42
2023-03-07T03:34:55.295Z,1012.45
2023-03-07T03:35:55.921Z,1012.44
2023-03-07T03:36:56.520Z,1012.38
2023-03-07T03:37:57.199Z,1012.43
2023-03-07T03:38:57.799Z,1012.40
2023-03-07T03:39:58.414Z,1012.38
2023-03-07T03:40:59.017Z,1012.36
2023-03-07T03:41:59.628Z,1012.29
2023-03-07T03:43:01.206Z,1012.37
2023-03-07T03:44:01.804Z,1012.39
2023-03-07T03:45:02.416Z,1012.33
2023-03-07T03:46:03.020Z,1012.33
2023-03-07T03:47:03.619Z,1012.37
2023-03-07T03:48:04.320Z,1012.36
2023-03-07T03:49:04.931Z,1012.35
2023-03-07T03:50:05.529Z,1012.38
2023-03-07T03:51:06.136Z,1012.29
2023-03-07T03:52:06.743Z,1012.34
2023-03-07T03:53:07.352Z,1012.34
2023-03-07T03:54:07.968Z,1012.35
2023-03-07T03:55:08.564Z,1012.43
2023-03-07T03:56:09.382Z,1012.34
2023-03-07T03:57:09.982Z,1012.33
2023-03-07T03:58:10.593Z,1012.34
2023-03-07T03:59:11.190Z,1012.33
2023-03-07T04:00:11.790Z,1012.30
2023-03-07T04:01:12.480Z,1012.31
2023-03-07T04:02:13.155Z,1012.31
2023-03-07T04:03:13.792Z,1012.35
2023-03-07T04:04:14.388Z,1012.26
2023-03-07T04:05:14.996Z,1012.28
2023-03-07T04:06:15.698Z,1012.36
2023-03-07T04:07:16.458Z,1012.30
2023-03-07T04:08:17.070Z,1012.24
2023-03-07T04:09:17.771Z,1012.36
2023-03-07T04:10:18.470Z,1012.29
2023-03-07T04:11:19.073Z,1012.34
2023-03-07T04:12:19.674Z,1012.37
2023-03-07T04:13:20.285Z,1012.35
2023-03-07T04:14:20.885Z,1012.35
2023-03-07T04:15:21.504Z,1012.31
2023-03-07T04:16:22.161Z,1012.39
2023-03-07T04:17:22.760Z,1012.39
2023-03-07T04:18:23.359Z,1012.41
2023-03-07T04:19:23.961Z,1012.33
2023-03-07T04:20:24.565Z,1012.39
2023-03-07T04:21:25.224Z,1012.39
2023-03-07T04:22:25.811Z,1012.33
2023-03-07T04:23:26.420Z,1012.41
2023-03-07T04:24:27.018Z,1012.31
2023-03-07T04:25:27.697Z,1012.36
2023-03-07T04:26:28.301Z,1012.38
2023-03-07T04:27:28.899Z,1012.44
2023-03-07T04:28:29.506Z,1012.38
2023-03-07T04:29:30.135Z,1012.39
2023-03-07T04:30:30.745Z,1012.40
2023-03-07T04:31:31.410Z,1012.46
2023-03-07T04:32:32.051Z,1012.40
2023-03-07T04:33:32.664Z,1012.40
2023-03-07T04:34:33.342Z,1012.39
2023-03-07T04:35:34.036Z,1012.39
2023-03-07T04:36:34.676Z,1012.39
2023-03-07T04:37:35.283Z,1012.43
2023-03-07T04:38:35.898Z,1012.37
2023-03-07T04:39:36.514Z,1012.43
2023-03-07T04:40:37.193Z,1012.42
2023-03-07T04:41:37.811Z,1012.53
2023-03-07T04:42:38.411Z,1012.45
2023-03-07T04:43:39.020Z,1012.42
2023-03-07T04:44:39.633Z,1012.36
2023-03-07T04:45:40.250Z,1012.41
2023-03-07T04:46:40.864Z,1012.41
2023-03-07T04:47:41.474Z,1012.43
2023-03-07T04:48:42.125Z,1012.46
2023-03-07T04:49:42.730Z,1012.41
2023-03-07T04:50:43.400Z,1012.46
2023-03-07T04:51:44.276Z,1012.47
2023-03-07T04:52:45.732Z,1012.45
2023-03-07T04:53:46.414Z,1012.38
2023-03-07T04:54:47.011Z,1012.47
2023-03-07T04:55:47.617Z,1012.53
2023-03-07T04:56:48.214Z,1012.47
2023-03-07T04:57:48.814Z,1012.42
2023-03-07T04:58:49.428Z,1012.55
2023-03-07T04:59:50.024Z,1012.60
2023-03-07T05:00:50.644Z,1012.48
2023-03-07T05:01:51.231Z,1012.54
2023-03-07T05:02:51.838Z,1012.53
2023-03-07T05:03:52.448Z,1012.53
2023-03-07T05:04:53.098Z,1012.50
2023-03-07T05:05:53.692Z,1012.58
2023-03-07T05:06:54.408Z,1012.58
2023-03-07T05:07:55.062Z,1012.54
2023-03-07T05:08:55.662Z,1012.63
2023-03-07T05:09:56.272Z,1012.57
2023-03-07T05:10:56.962Z,1012.56
2023-03-07T05:11:57.689Z,1012.54
2023-03-07T05:12:58.300Z,1012.51
2023-03-07T05:13:59.102Z,1012.46
2023-03-07T05:14:59.704Z,1012.53
2023-03-07T05:16:00.364Z,1012.45
2023-03-07T05:17:00.988Z,1012.50
2023-03-07T05:18:01.649Z,1012.50
2023-03-07T05:19:04.374Z,1012.50
2023-03-07T05:20:02.991Z,1012.48
2023-03-07T05:21:03.593Z,1012.55
2023-03-07T05:22:04.191Z,1012.49
2023-03-07T05:23:04.856Z,1012.55
2023-03-07T05:24:05.460Z,1012.52
2023-03-07T05:25:06.091Z,1012.48
2023-03-07T05:26:06.683Z,1012.55
2023-03-07T05:27:07.283Z,1012.51
2023-03-07T05:28:07.884Z,1012.51
2023-03-07T05:29:08.498Z,1012.57
2023-03-07T05:30:09.094Z,1012.57
2023-03-07T05:31:09.768Z,1012.61
2023-03-07T05:32:10.378Z,1012.55
2023-03-07T05:33:10.973Z,1012.66
2023-03-07T05:34:11.580Z,1012.67
2023-03-07T05:35:12.191Z,1012.66
2023-03-07T05:36:12.855Z,1012.58
2023-03-07T05:37:13.465Z,1012.62
2023-03-07T05:38:14.081Z,1012.66
2023-03-07T05:39:14.670Z,1012.65
2023-03-07T05:40:15.277Z,1012.61
2023-03-07T05:41:15.883Z,1012.58
2023-03-07T05:42:16.496Z,1012.60
2023-03-07T05:43:17.090Z,1012.52
2023-03-07T05:44:17.696Z,1012.54
2023-03-07T05:45:18.288Z,1012.57
2023-03-07T05:46:18.940Z,1012.60
2023-03-07T05:47:19.549Z,1012.63
2023-03-07T05:48:20.201Z,1012.56
2023-03-07T05:49:20.810Z,1012.54
2023-03-07T05:50:21.411Z,1012.56
2023-03-07T05:51:22.062Z,1012.63
2023-03-07T05:52:22.664Z,1012.58
2023-03-07T05:53:23.296Z,1012.60
2023-03-07T05:54:23.877Z,1012.63
2023-03-07T05:55:24.486Z,1012.70
2023-03-07T05:56:25.086Z,1012.63
2023-03-07T05:57:25.696Z,1012.76
2023-03-07T05:58:26.306Z,1012.65
2023-03-07T05:59:26.999Z,1012.67
2023-03-07T06:00:27.600Z,1012.65
2023-03-07T06:01:28.208Z,1012.73
2023-03-07T06:02:28.833Z,1012.79
2023-03-07T06:03:29.453Z,1012.75
2023-03-07T06:04:30.073Z,1012.72
2023-03-07T06:05:30.691Z,1012.81
2023-03-07T06:06:31.505Z,1012.83
2023-03-07T06:07:32.111Z,1012.88
2023-03-07T06:08:32.858Z,1012.85
2023-03-07T06:09:33.471Z,1012.90
2023-03-07T06:10:34.069Z,1012.95
2023-03-07T06:11:34.715Z,1012.99
2023-03-07T06:12:35.361Z,1013.07
2023-03-07T06:13:36.021Z,1012.97
2023-03-07T06:14:36.635Z,1012.95
2023-03-07T06:15:37.231Z,1012.97
2023-03-07T06:16:37.840Z,1013.00
2023-03-07T06:17:40.615Z,1013.05
2023-03-07T06:18:40.079Z,1013.06
2023-03-07T06:19:40.712Z,1013.05
2023-03-07T06:20:41.325Z,1013.13
2023-03-07T06:21:41.931Z,1013.06
2023-03-07T06:22:42.537Z,1013.10
2023-03-07T06:23:43.299Z,1013.15
2023-03-07T06:24:43.908Z,1013.16
2023-03-07T06:25:44.512Z,1013.17
2023-03-07T06:26:45.111Z,1013.15
2023-03-07T06:27:45.746Z,1013.22
2023-03-07T06:28:46.345Z,1013.17
2023-03-07T06:29:46.960Z,1013.20
2023-03-07T06:30:47.615Z,1013.24
2023-03-07T06:31:48.331Z,1013.24
2023-03-07T06:32:49.022Z,1013.24
2023-03-07T06:33:49.679Z,1013.26
2023-03-07T06:34:50.359Z,1013.24
2023-03-07T06:35:50.995Z,1013.24
2023-03-07T06:36:51.593Z,1013.20
2023-03-07T06:37:52.201Z,1013.28
2023-03-07T06:38:52.811Z,1013.26
2023-03-07T06:39:53.420Z,1013.29
2023-03-07T06:40:54.029Z,1013.38
2023-03-07T06:41:55.482Z,1013.37
2023-03-07T06:42:56.090Z,1013.37
2023-03-07T06:43:56.700Z,1013.34
2023-03-07T06:44:57.303Z,1013.42
2023-03-07T06:45:57.921Z,1013.43
2023-03-07T06:46:58.810Z,1013.51
2023-03-07T06:47:59.414Z,1013.46
2023-03-07T06:49:00.020Z,1013.40
2023-03-07T06:50:00.616Z,1013.38
2023-03-07T06:51:01.229Z,1013.43
2023-03-07T06:52:01.927Z,1013.35
2023-03-07T06:53:02.523Z,1013.40
2023-03-07T06:54:03.136Z,1013.30
2023-03-07T06:55:03.803Z,1013.32
2023-03-07T06:56:04.413Z,1013.38
2023-03-07T06:57:05.019Z,1013.34
2023-03-07T06:58:05.614Z,1013.39
2023-03-07T06:59:06.215Z,1013.39
2023-03-07T07:00:06.847Z,1013.40
2023-03-07T07:01:07.481Z,1013.44
2023-03-07T07:02:08.158Z,1013.43
2023-03-07T07:03:08.916Z,1013.49
2023-03-07T07:04:09.568Z,1013.46
2023-03-07T07:05:10.176Z,1013.51
2023-03-07T07:06:10.780Z,1013.48
2023-03-07T07:07:11.387Z,1013.52
2023-03-07T07:08:11.985Z,1013.54
2023-03-07T07:09:12.621Z,1013.52
2023-03-07T07:10:13.283Z,1013.45
2023-03-07T07:11:13.889Z,1013.52
2023-03-07T07:12:14.492Z,1013.50
2023-03-07T07:13:15.124Z,1013.45
2023-03-07T07:14:15.712Z,1013.46
2023-03-07T07:15:16.317Z,1013.48
2023-03-07T07:16:17.027Z,1013.55
2023-03-07T07:17:17.691Z,1013.60
2023-03-07T07:18:18.294Z,1013.53
2023-03-07T07:19:18.893Z,1013.47
2023-03-07T07:20:19.503Z,1013.56
2023-03-07T07:21:20.178Z,1013.61
2023-03-07T07:22:21.584Z,1013.67
2023-03-07T07:23:22.190Z,1013.66
2023-03-07T07:24:22.875Z,1013.66
2023-03-07T07:25:23.487Z,1013.66
2023-03-07T07:26:24.170Z,1013.76
2023-03-07T07:27:24.776Z,1013.75
2023-03-07T07:28:25.375Z,1013.82
2023-03-07T07:29:25.977Z,1013.75
2023-03-07T07:30:27.139Z,1013.78
2023-03-07T07:31:27.773Z,1013.78
2023-03-07T07:32:28.588Z,1013.74
2023-03-07T07:33:29.541Z,1013.81
2023-03-07T07:34:30.183Z,1013.90
2023-03-07T07:35:30.824Z,1013.74
2023-03-07T07:36:31.504Z,1013.83
2023-03-07T07:37:32.186Z,1013.83
2023-03-07T07:38:32.845Z,1013.86
2023-03-07T07:39:33.455Z,1013.88
2023-03-07T07:40:34.057Z,1013.88
2023-03-07T07:41:34.728Z,1013.88
2023-03-07T07:42:35.393Z,1013.88
2023-03-07T07:43:35.995Z,1013.81
2023-03-07T07:44:36.669Z,1013.89
2023-03-07T07:45:37.336Z,1013.89
2023-03-07T07:46:37.964Z,1013.96
2023-03-07T07:47:38.574Z,1013.88
2023-03-07T07:48:39.177Z,1013.91
2023-03-07T07:49:39.787Z,1013.91
2023-03-07T07:50:40.395Z,1013.95
2023-03-07T07:51:41.013Z,1013.92
2023-03-07T07:52:41.664Z,1013.92
2023-03-07T07:53:42.279Z,1013.78
2023-03-07T07:54:42.869Z,1013.92
2023-03-07T07:55:43.473Z,1013.87
2023-03-07T07:56:44.083Z,1013.85
2023-03-07T07:57:45.533Z,1013.87
2023-03-07T07:58:46.209Z,1013.84
2023-03-07T07:59:46.819Z,1013.94
2023-03-07T08:00:47.429Z,1013.95
2023-03-07T08:01:48.037Z,1013.93
2023-03-07T08:02:48.714Z,1013.90
2023-03-07T08:03:49.340Z,1013.85
2023-03-07T08:04:49.987Z,1013.93
2023-03-07T08:05:50.661Z,1013.91
2023-03-07T08:06:51.262Z,1013.95
2023-03-07T08:07:51.864Z,1014.01
2023-03-07T08:08:52.531Z,1014.04
2023-03-07T08:09:53.143Z,1014.02
2023-03-07T08:10:53.744Z,1014.07
2023-03-07T08:11:54.424Z,1013.92
2023-03-07T08:12:55.024Z,1014.00
2023-03-07T08:13:55.613Z,1014.09
2023-03-07T08:14:56.226Z,1014.06
2023-03-07T08:15:56.862Z,1014.05
2023-03-07T08:16:57.490Z,1014.11
2023-03-07T08:17:58.106Z,1014.04
2023-03-07T08:18:58.743Z,1014.09
2023-03-07T08:20:01.317Z,1014.10
2023-03-07T08:21:00.956Z,1014.10
2023-03-07T08:22:01.644Z,1014.09
2023-03-07T08:23:02.248Z,1014.10
2023-03-07T08:24:02.854Z,1014.10
2023-03-07T08:25:04.255Z,1014.14
2023-03-07T08:26:06.283Z,1014.13
2023-03-07T08:27:05.530Z,1014.17
2023-03-07T08:28:06.140Z,1014.24
2023-03-07T08:29:06.747Z,1014.22
2023-03-07T08:30:07.360Z,1014.17
2023-03-07T08:31:08.043Z,1014.20
2023-03-07T08:32:10.460Z,1014.23
2023-03-07T08:33:10.265Z,1014.19
2023-03-07T08:34:10.877Z,1014.19
2023-03-07T08:35:11.475Z,1014.25
2023-03-07T08:36:12.095Z,1014.25
2023-03-07T08:37:12.694Z,1014.31
2023-03-07T08:38:14.146Z,1014.25
2023-03-07T08:39:14.798Z,1014.27
2023-03-07T08:40:15.541Z,1014.22
2023-03-07T08:41:16.985Z,1014.32
2023-03-07T08:42:17.633Z,1014.27
2023-03-07T08:43:18.260Z,1014.21
2023-03-07T08:44:18.914Z,1014.25
2023-03-07T08:45:20.833Z,1014.32
2023-03-07T08:46:22.000Z,1014.25
2023-03-07T08:47:22.599Z,1014.34
2023-03-07T08:48:23.206Z,1014.25
2023-03-07T08:49:23.805Z,1014.26
2023-03-07T08:50:24.406Z,1014.26
2023-03-07T08:51:25.023Z,1014.22
2023-03-07T08:52:25.626Z,1014.36
2023-03-07T08:53:26.230Z,1014.36
2023-03-07T08:54:26.843Z,1014.33
2023-03-07T08:55:27.579Z,1014.35
2023-03-07T08:56:28.181Z,1014.34
2023-03-07T08:57:28.788Z,1014.36
2023-03-07T08:58:29.388Z,1014.36
2023-03-07T08:59:29.998Z,1014.43
2023-03-07T09:00:30.597Z,1014.33
2023-03-07T09:01:32.095Z,1014.43
2023-03-07T09:02:32.721Z,1014.42
2023-03-07T09:03:33.365Z,1014.43
2023-03-07T09:04:34.038Z,1014.49
2023-03-07T09:05:34.650Z,1014.49
2023-03-07T09:06:35.257Z,1014.40
2023-03-07T09:07:35.860Z,1014.47
2023-03-07T09:08:36.555Z,1014.47
2023-03-07T09:09:37.152Z,1014.42
2023-03-07T09:10:37.763Z,1014.45
2023-03-07T09:11:38.438Z,1014.48
2023-03-07T09:12:39.061Z,1014.50
2023-03-07T09:13:50.970Z,1014.45
2023-03-07T09:14:40.334Z,1014.45
2023-03-07T09:15:40.970Z,1014.45
2023-03-07T09:16:41.671Z,1014.49
2023-03-07T09:17:42.431Z,1014.49
2023-03-07T09:18:43.025Z,1014.54
2023-03-07T09:19:43.636Z,1014.56
2023-03-07T09:20:44.366Z,1014.53
2023-03-07T09:21:44.995Z,1014.53
2023-03-07T09:22:45.666Z,1014.62
2023-03-07T09:23:46.277Z,1014.59
2023-03-07T09:24:46.888Z,1014.61
2023-03-07T09:25:47.603Z,1014.60
2023-03-07T09:26:48.259Z,1014.68
2023-03-07T09:27:50.992Z,1014.59
2023-03-07T09:28:50.470Z,1014.67
2023-03-07T09:29:51.074Z,1014.66
2023-03-07T09:30:52.479Z,1014.60
2023-03-07T09:31:53.201Z,1014.61
2023-03-07T09:32:53.902Z,1014.66
2023-03-07T09:33:54.504Z,1014.59
2023-03-07T09:34:55.103Z,1014.64
2023-03-07T09:35:55.732Z,1014.61
2023-03-07T09:36:56.319Z,1014.60
2023-03-07T09:37:56.941Z,1014.67
2023-03-07T09:38:58.480Z,1014.68
2023-03-07T09:39:59.074Z,1014.58
2023-03-07T09:40:59.743Z,1014.58
2023-03-07T09:42:00.439Z,1014.57
2023-03-07T09:43:01.882Z,1014.56
2023-03-07T09:44:02.611Z,1014.54
2023-03-07T09:45:03.221Z,1014.52
2023-03-07T09:46:03.856Z,1014.56
2023-03-07T09:47:04.452Z,1014.60
2023-03-07T09:48:05.142Z,1014.56
2023-03-07T09:49:05.790Z,1014.51
2023-03-07T09:50:06.393Z,1014.52
2023-03-07T09:51:11.699Z,1014.56
2023-03-07T09:52:10.274Z,1014.59
2023-03-07T09:53:10.198Z,1014.67
2023-03-07T09:54:10.805Z,1014.60
2023-03-07T09:55:11.407Z,1014.60
2023-03-07T09:56:12.017Z,1014.70
2023-03-07T09:57:12.626Z,1014.76
2023-03-07T09:58:14.038Z,1014.67
2023-03-07T09:59:22.847Z,1014.67
2023-03-07T10:00:17.225Z,1014.75
2023-03-07T10:01:17.836Z,1014.69
2023-03-07T10:02:18.487Z,1014.69
2023-03-07T10:03:19.143Z,1014.70
2023-03-07T10:04:19.828Z,1014.64
2023-03-07T10:05:20.434Z,1014.62
2023-03-07T10:06:21.040Z,1014.61
2023-03-07T10:07:21.650Z,1014.59
2023-03-07T10:08:23.104Z,1014.55
2023-03-07T10:09:23.755Z,1014.63
2023-03-07T10:10:24.360Z,1014.70
2023-03-07T10:11:25.105Z,1014.60
2023-03-07T10:12:25.655Z,1014.69
2023-03-07T10:13:26.251Z,1014.64
2023-03-07T10:14:26.883Z,1014.68
2023-03-07T10:15:27.509Z,1014.73
2023-03-07T10:16:28.145Z,1014.72
2023-03-07T10:17:29.024Z,1014.79
2023-03-07T10:18:29.656Z,1014.80
2023-03-07T10:19:30.361Z,1014.78
2023-03-07T10:20:31.113Z,1014.78
2023-03-07T10:21:31.777Z,1014.80
2023-03-07T10:22:32.422Z,1014.80
2023-03-07T10:23:33.051Z,1014.83
2023-03-07T10:24:33.652Z,1014.78
2023-03-07T10:25:34.248Z,1014.81
2023-03-07T10:26:34.848Z,1014.78
2023-03-07T10:27:35.451Z,1014.71
2023-03-07T10:28:36.109Z,1014.74
2023-03-07T10:29:36.716Z,1014.74
2023-03-07T10:30:37.320Z,1014.79
2023-03-07T10:31:38.045Z,1014.78
2023-03-07T10:32:38.808Z,1014.81
2023-03-07T10:33:40.297Z,1014.81
2023-03-07T10:34:40.096Z,1014.88
2023-03-07T10:35:40.725Z,1014.86
2023-03-07T10:36:41.361Z,1014.89
2023-03-07T10:37:41.967Z,1014.82
2023-03-07T10:38:42.575Z,1014.80
2023-03-07T10:39:43.194Z,1014.79
2023-03-07T10:40:44.597Z,1014.85
2023-03-07T10:41:45.211Z,1014.85
2023-03-07T10:42:45.808Z,1014.86
2023-03-07T10:43:46.419Z,1014.84
2023-03-07T10:44:47.087Z,1014.79
2023-03-07T10:45:47.828Z,1014.82
2023-03-07T10:46:55.662Z,1014.81
2023-03-07T10:47:50.141Z,1014.73
2023-03-07T10:48:50.741Z,1014.71
2023-03-07T10:49:51.411Z,1014.74
2023-03-07T10:50:52.036Z,1014.67
2023-03-07T10:51:53.617Z,1014.65
2023-03-07T10:52:54.224Z,1014.63
2023-03-07T10:53:54.894Z,1014.68
2023-03-07T10:54:55.507Z,1014.79
2023-03-07T10:55:56.105Z,1014.74
2023-03-07T10:56:56.709Z,1014.68
2023-03-07T10:57:57.599Z,1014.76
2023-03-07T10:58:58.218Z,1014.71
2023-03-07T10:59:58.827Z,1014.73
2023-03-07T11:00:59.486Z,1014.74
2023-03-07T11:02:00.136Z,1014.72
2023-03-07T11:03:00.783Z,1014.71
2023-03-07T11:04:01.429Z,1014.77
2023-03-07T11:05:02.125Z,1014.74
2023-03-07T11:06:02.751Z,1014.78
2023-03-07T11:07:03.366Z,1014.78
2023-03-07T11:08:04.830Z,1014.81
2023-03-07T11:09:05.441Z,1014.78
2023-03-07T11:10:06.053Z,1014.80
2023-03-07T11:11:06.657Z,1014.85
2023-03-07T11:12:07.271Z,1014.80
2023-03-07T11:13:07.945Z,1014.81
2023-03-07T11:14:08.558Z,1014.77
2023-03-07T11:15:09.178Z,1014.73
2023-03-07T11:16:12.059Z,1014.73
2023-03-07T11:17:12.076Z,1014.71
2023-03-07T11:18:12.677Z,1014.73
2023-03-07T11:19:13.278Z,1014.66
2023-03-07T11:20:13.889Z,1014.66
2023-03-07T11:21:14.499Z,1014.73
2023-03-07T11:22:15.107Z,1014.78
2023-03-07T11:23:15.719Z,1014.79
2023-03-07T11:24:16.377Z,1014.77
2023-03-07T11:25:16.980Z,1014.83
2023-03-07T11:26:17.595Z,1014.77
2023-03-07T11:27:18.188Z,1014.82
2023-03-07T11:28:18.861Z,1014.84
2023-03-07T11:29:19.471Z,1014.85
2023-03-07T11:30:20.097Z,1014.84
2023-03-07T11:31:20.787Z,1014.91
2023-03-07T11:32:22.289Z,1014.86
2023-03-07T11:33:22.883Z,1014.82
2023-03-07T11:34:23.500Z,1014.79
2023-03-07T11:35:24.179Z,1014.83
2023-03-07T11:36:24.863Z,1014.91
2023-03-07T11:37:25.474Z,1014.94
2023-03-07T11:38:26.085Z,1014.90
2023-03-07T11:39:26.695Z,1014.96
2023-03-07T11:40:27.296Z,1014.95
2023-03-07T11:41:27.897Z,1015.01
2023-03-07T11:42:28.497Z,1014.96
2023-03-07T11:43:29.244Z,1014.96
2023-03-07T11:44:29.926Z,1014.95
2023-03-07T11:45:30.517Z,1014.91
2023-03-07T11:46:31.329Z,1014.99
2023-03-07T11:47:31.806Z,1014.89
2023-03-07T11:48:32.454Z,1014.83
2023-03-07T11:49:33.069Z,1014.82
2023-03-07T11:50:33.696Z,1014.84
2023-03-07T11:51:34.305Z,1014.86
2023-03-07T11:52:34.956Z,1014.93
2023-03-07T11:53:35.562Z,1014.93
2023-03-07T11:54:36.162Z,1014.88
2023-03-07T11:55:36.772Z,1014.85
2023-03-07T11:56:37.433Z,1014.90
2023-03-07T11:57:38.042Z,1014.95
2023-03-07T11:58:38.716Z,1014.92
2023-03-07T11:59:39.313Z,1014.87
2023-03-07T12:00:39.974Z,1014.86
2023-03-07T12:01:40.593Z,1014.83
2023-03-07T12:02:41.218Z,1014.74
2023-03-07T12:03:41.821Z,1014.88
2023-03-07T12:04:42.431Z,1014.89
2023-03-07T12:05:43.102Z,1014.84
2023-03-07T12:06:43.730Z,1014.82
2023-03-07T12:07:44.335Z,1014.94
2023-03-07T12:08:44.938Z,1014.94
2023-03-07T12:09:45.537Z,1014.85
2023-03-07T12:10:46.195Z,1014.94
2023-03-07T12:11:46.796Z,1014.92
2023-03-07T12:12:47.450Z,1015.07
2023-03-07T12:13:48.083Z,1015.02